sensor_id;sensor_type;location;lat;lon;timestamp;P1;durP1;ratioP1;P2;durP2;ratioP2
66870;SDS011;53780;44.998;9.926;2023-05-10T00:00:40;15.30;;;7.72;;
66870;SDS011;53780;44.998;9.926;2023-05-10T00:03:43;15.55;;;7.82;;
66870;SDS011;53780;44.998;9.926;2023-05-10T00:06:48;15.38;;;7.90;;
66870;SDS011;53780;44.998;9.926;2023-05-10T00:09:51;14.00;;;7.10;;
66870;SDS011;53780;44.998;9.926;2023-05-10T00:12:55;16.88;;;8.68;;
66870;SDS011;53780;44.998;9.926;2023-05-10T00:15:59;15.38;;;8.13;;
66870;SDS011;53780;44.998;9.926;2023-05-10T00:19:03;18.75;;;8.95;;
66870;SDS011;53780;44.998;9.926;2023-05-10T00:22:07;17.20;;;8.77;;
66870;SDS011;53780;44.998;9.926;2023-05-10T00:25:11;16.83;;;8.63;;
66870;SDS011;53780;44.998;9.926;2023-05-10T00:28:14;16.58;;;8.57;;
66870;SDS011;53780;44.998;9.926;2023-05-10T00:31:18;16.67;;;8.27;;
66870;SDS011;53780;44.998;9.926;2023-05-10T00:34:22;18.98;;;8.75;;
66870;SDS011;53780;44.998;9.926;2023-05-10T00:37:25;17.88;;;8.43;;
66870;SDS011;53780;44.998;9.926;2023-05-10T00:40:29;17.97;;;8.50;;
66870;SDS011;53780;44.998;9.926;2023-05-10T00:43:37;19.60;;;9.70;;
66870;SDS011;53780;44.998;9.926;2023-05-10T00:46:42;16.35;;;9.50;;
66870;SDS011;53780;44.998;9.926;2023-05-10T00:49:46;18.58;;;9.52;;
66870;SDS011;53780;44.998;9.926;2023-05-10T00:52:49;19.92;;;9.75;;
66870;SDS011;53780;44.998;9.926;2023-05-10T00:55:54;20.23;;;10.23;;
66870;SDS011;53780;44.998;9.926;2023-05-10T00:58:58;18.92;;;9.55;;
66870;SDS011;53780;44.998;9.926;2023-05-10T01:02:03;19.98;;;10.20;;
66870;SDS011;53780;44.998;9.926;2023-05-10T01:05:07;17.92;;;9.27;;
66870;SDS011;53780;44.998;9.926;2023-05-10T01:08:10;18.40;;;9.95;;
66870;SDS011;53780;44.998;9.926;2023-05-10T01:11:14;17.63;;;8.93;;
66870;SDS011;53780;44.998;9.926;2023-05-10T01:14:18;17.30;;;8.73;;
66870;SDS011;53780;44.998;9.926;2023-05-10T01:17:23;15.98;;;8.35;;
66870;SDS011;53780;44.998;9.926;2023-05-10T01:20:28;15.88;;;8.25;;
66870;SDS011;53780;44.998;9.926;2023-05-10T01:34:09;17.20;;;8.90;;
66870;SDS011;53780;44.998;9.926;2023-05-10T01:37:21;18.77;;;9.40;;
66870;SDS011;53780;44.998;9.926;2023-05-10T01:40:34;19.50;;;9.65;;
66870;SDS011;53780;44.998;9.926;2023-05-10T01:47:35;19.08;;;9.80;;
66870;SDS011;53780;44.998;9.926;2023-05-10T01:50:43;18.25;;;9.45;;
66870;SDS011;53780;44.998;9.926;2023-05-10T01:53:49;17.73;;;9.38;;
66870;SDS011;53780;44.998;9.926;2023-05-10T01:56:59;16.95;;;9.32;;
66870;SDS011;53780;44.998;9.926;2023-05-10T02:00:07;19.33;;;9.73;;
66870;SDS011;53780;44.998;9.926;2023-05-10T02:03:20;20.70;;;9.68;;
66870;SDS011;53780;44.998;9.926;2023-05-10T02:06:26;18.40;;;9.48;;
66870;SDS011;53780;44.998;9.926;2023-05-10T02:09:30;17.50;;;9.32;;
66870;SDS011;53780;44.998;9.926;2023-05-10T02:12:37;16.48;;;8.70;;
66870;SDS011;53780;44.998;9.926;2023-05-10T02:15:48;17.07;;;8.53;;
66870;SDS011;53780;44.998;9.926;2023-05-10T02:18:53;15.75;;;8.20;;
66870;SDS011;53780;44.998;9.926;2023-05-10T02:21:58;18.90;;;9.07;;
66870;SDS011;53780;44.998;9.926;2023-05-10T02:25:04;16.27;;;8.45;;
66870;SDS011;53780;44.998;9.926;2023-05-10T02:28:10;15.70;;;8.30;;
66870;SDS011;53780;44.998;9.926;2023-05-10T02:31:16;16.20;;;8.50;;
66870;SDS011;53780;44.998;9.926;2023-05-10T02:34:21;17.08;;;8.80;;
66870;SDS011;53780;44.998;9.926;2023-05-10T02:37:26;19.38;;;8.88;;
66870;SDS011;53780;44.998;9.926;2023-05-10T02:40:31;18.02;;;8.80;;
66870;SDS011;53780;44.998;9.926;2023-05-10T02:43:36;15.32;;;7.97;;
66870;SDS011;53780;44.998;9.926;2023-05-10T02:46:43;14.87;;;7.60;;
66870;SDS011;53780;44.998;9.926;2023-05-10T02:49:48;13.93;;;7.57;;
66870;SDS011;53780;44.998;9.926;2023-05-10T02:52:54;14.02;;;7.13;;
66870;SDS011;53780;44.998;9.926;2023-05-10T02:56:04;13.15;;;7.10;;
66870;SDS011;53780;44.998;9.926;2023-05-10T02:59:14;12.75;;;7.03;;
66870;SDS011;53780;44.998;9.926;2023-05-10T03:02:18;12.77;;;7.03;;
66870;SDS011;53780;44.998;9.926;2023-05-10T03:05:21;12.95;;;6.75;;
66870;SDS011;53780;44.998;9.926;2023-05-10T03:08:25;13.57;;;6.97;;
66870;SDS011;53780;44.998;9.926;2023-05-10T03:21:07;12.38;;;7.07;;
66870;SDS011;53780;44.998;9.926;2023-05-10T03:24:18;13.25;;;6.88;;
66870;SDS011;53780;44.998;9.926;2023-05-10T03:27:26;13.90;;;7.30;;
66870;SDS011;53780;44.998;9.926;2023-05-10T03:30:32;12.07;;;6.70;;
66870;SDS011;53780;44.998;9.926;2023-05-10T03:33:45;12.30;;;6.83;;
66870;SDS011;53780;44.998;9.926;2023-05-10T03:36:55;12.45;;;6.40;;
66870;SDS011;53780;44.998;9.926;2023-05-10T03:40:01;12.20;;;6.45;;
66870;SDS011;53780;44.998;9.926;2023-05-10T03:43:08;15.52;;;7.57;;
66870;SDS011;53780;44.998;9.926;2023-05-10T03:46:12;16.10;;;7.28;;
66870;SDS011;53780;44.998;9.926;2023-05-10T03:49:16;16.67;;;8.40;;
66870;SDS011;53780;44.998;9.926;2023-05-10T03:52:20;16.77;;;7.97;;
66870;SDS011;53780;44.998;9.926;2023-05-10T03:55:25;17.88;;;8.50;;
66870;SDS011;53780;44.998;9.926;2023-05-10T03:58:29;16.92;;;8.30;;
66870;SDS011;53780;44.998;9.926;2023-05-10T04:01:33;17.55;;;9.20;;
66870;SDS011;53780;44.998;9.926;2023-05-10T04:04:37;18.73;;;8.70;;
66870;SDS011;53780;44.998;9.926;2023-05-10T04:07:42;16.90;;;8.18;;
66870;SDS011;53780;44.998;9.926;2023-05-10T04:10:47;15.88;;;8.05;;
66870;SDS011;53780;44.998;9.926;2023-05-10T04:13:51;13.23;;;6.93;;
66870;SDS011;53780;44.998;9.926;2023-05-10T04:16:55;15.77;;;6.38;;
66870;SDS011;53780;44.998;9.926;2023-05-10T04:19:59;10.93;;;5.90;;
66870;SDS011;53780;44.998;9.926;2023-05-10T04:23:03;12.18;;;5.97;;
66870;SDS011;53780;44.998;9.926;2023-05-10T04:26:06;13.15;;;5.70;;
66870;SDS011;53780;44.998;9.926;2023-05-10T04:29:10;13.73;;;6.30;;
66870;SDS011;53780;44.998;9.926;2023-05-10T04:32:14;13.98;;;7.22;;
66870;SDS011;53780;44.998;9.926;2023-05-10T04:35:19;15.43;;;7.97;;
66870;SDS011;53780;44.998;9.926;2023-05-10T04:38:23;14.68;;;7.50;;
66870;SDS011;53780;44.998;9.926;2023-05-10T04:41:27;14.48;;;7.05;;
66870;SDS011;53780;44.998;9.926;2023-05-10T04:44:32;13.45;;;6.82;;
66870;SDS011;53780;44.998;9.926;2023-05-10T04:47:36;13.88;;;6.80;;
66870;SDS011;53780;44.998;9.926;2023-05-10T04:50:40;12.93;;;6.73;;
66870;SDS011;53780;44.998;9.926;2023-05-10T04:53:44;13.20;;;7.05;;
66870;SDS011;53780;44.998;9.926;2023-05-10T04:56:47;12.65;;;6.78;;
66870;SDS011;53780;44.998;9.926;2023-05-10T04:59:51;15.43;;;7.28;;
66870;SDS011;53780;44.998;9.926;2023-05-10T05:02:55;14.95;;;6.93;;
66870;SDS011;53780;44.998;9.926;2023-05-10T05:05:58;12.20;;;6.30;;
66870;SDS011;53780;44.998;9.926;2023-05-10T05:09:02;13.30;;;6.22;;
66870;SDS011;53780;44.998;9.926;2023-05-10T05:12:06;11.27;;;5.85;;
66870;SDS011;53780;44.998;9.926;2023-05-10T05:15:10;9.95;;;5.30;;
66870;SDS011;53780;44.998;9.926;2023-05-10T05:18:14;11.38;;;5.72;;
66870;SDS011;53780;44.998;9.926;2023-05-10T05:21:18;11.47;;;5.83;;
66870;SDS011;53780;44.998;9.926;2023-05-10T05:24:23;10.60;;;5.07;;
66870;SDS011;53780;44.998;9.926;2023-05-10T05:27:27;10.30;;;5.53;;
66870;SDS011;53780;44.998;9.926;2023-05-10T05:30:31;10.95;;;5.38;;
66870;SDS011;53780;44.998;9.926;2023-05-10T05:33:35;9.45;;;5.18;;
66870;SDS011;53780;44.998;9.926;2023-05-10T05:36:39;9.17;;;4.80;;
66870;SDS011;53780;44.998;9.926;2023-05-10T05:39:43;11.10;;;5.38;;
66870;SDS011;53780;44.998;9.926;2023-05-10T05:42:47;9.88;;;5.00;;
66870;SDS011;53780;44.998;9.926;2023-05-10T05:45:54;10.75;;;5.00;;
66870;SDS011;53780;44.998;9.926;2023-05-10T05:48:59;12.15;;;5.15;;
66870;SDS011;53780;44.998;9.926;2023-05-10T05:52:03;10.33;;;4.87;;
66870;SDS011;53780;44.998;9.926;2023-05-10T05:55:07;9.38;;;4.93;;
66870;SDS011;53780;44.998;9.926;2023-05-10T05:58:11;10.55;;;5.18;;
66870;SDS011;53780;44.998;9.926;2023-05-10T06:01:15;10.85;;;5.15;;
66870;SDS011;53780;44.998;9.926;2023-05-10T06:04:19;10.13;;;5.30;;
66870;SDS011;53780;44.998;9.926;2023-05-10T06:07:23;11.40;;;5.67;;
66870;SDS011;53780;44.998;9.926;2023-05-10T06:10:26;10.77;;;4.93;;
66870;SDS011;53780;44.998;9.926;2023-05-10T06:13:30;10.15;;;4.82;;
66870;SDS011;53780;44.998;9.926;2023-05-10T06:16:35;9.27;;;4.90;;
66870;SDS011;53780;44.998;9.926;2023-05-10T06:19:40;11.43;;;5.20;;
66870;SDS011;53780;44.998;9.926;2023-05-10T06:22:44;9.33;;;4.90;;
66870;SDS011;53780;44.998;9.926;2023-05-10T06:25:47;9.98;;;4.93;;
66870;SDS011;53780;44.998;9.926;2023-05-10T06:28:51;9.02;;;4.68;;
66870;SDS011;53780;44.998;9.926;2023-05-10T06:31:55;9.70;;;4.78;;
66870;SDS011;53780;44.998;9.926;2023-05-10T06:34:59;9.63;;;5.10;;
66870;SDS011;53780;44.998;9.926;2023-05-10T06:38:03;9.70;;;4.33;;
66870;SDS011;53780;44.998;9.926;2023-05-10T06:41:06;9.60;;;4.40;;
66870;SDS011;53780;44.998;9.926;2023-05-10T06:44:11;9.73;;;4.30;;
66870;SDS011;53780;44.998;9.926;2023-05-10T06:47:16;10.60;;;4.85;;
66870;SDS011;53780;44.998;9.926;2023-05-10T06:50:20;9.35;;;4.45;;
66870;SDS011;53780;44.998;9.926;2023-05-10T06:53:24;11.63;;;4.73;;
66870;SDS011;53780;44.998;9.926;2023-05-10T06:56:28;9.02;;;4.40;;
66870;SDS011;53780;44.998;9.926;2023-05-10T06:59:32;9.57;;;4.78;;
66870;SDS011;53780;44.998;9.926;2023-05-10T07:02:35;9.10;;;4.13;;
66870;SDS011;53780;44.998;9.926;2023-05-10T07:05:39;11.25;;;4.65;;
66870;SDS011;53780;44.998;9.926;2023-05-10T07:08:43;10.63;;;4.33;;
66870;SDS011;53780;44.998;9.926;2023-05-10T07:11:46;10.38;;;4.55;;
66870;SDS011;53780;44.998;9.926;2023-05-10T07:14:50;10.02;;;4.40;;
66870;SDS011;53780;44.998;9.926;2023-05-10T07:17:54;10.25;;;4.40;;
66870;SDS011;53780;44.998;9.926;2023-05-10T07:20:58;10.20;;;4.45;;
66870;SDS011;53780;44.998;9.926;2023-05-10T07:24:01;9.50;;;4.60;;
66870;SDS011;53780;44.998;9.926;2023-05-10T07:27:05;9.27;;;4.43;;
66870;SDS011;53780;44.998;9.926;2023-05-10T07:30:09;9.57;;;4.47;;
66870;SDS011;53780;44.998;9.926;2023-05-10T07:33:14;11.45;;;4.38;;
66870;SDS011;53780;44.998;9.926;2023-05-10T07:36:19;8.20;;;4.10;;
66870;SDS011;53780;44.998;9.926;2023-05-10T07:39:23;10.23;;;4.20;;
66870;SDS011;53780;44.998;9.926;2023-05-10T07:42:27;9.82;;;4.38;;
66870;SDS011;53780;44.998;9.926;2023-05-10T07:45:31;9.13;;;4.40;;
66870;SDS011;53780;44.998;9.926;2023-05-10T07:48:36;8.05;;;3.95;;
66870;SDS011;53780;44.998;9.926;2023-05-10T07:51:41;9.73;;;4.13;;
66870;SDS011;53780;44.998;9.926;2023-05-10T07:54:48;7.67;;;4.30;;
66870;SDS011;53780;44.998;9.926;2023-05-10T07:57:52;8.30;;;4.22;;
66870;SDS011;53780;44.998;9.926;2023-05-10T08:00:56;8.13;;;4.32;;
66870;SDS011;53780;44.998;9.926;2023-05-10T08:04:00;8.15;;;4.10;;
66870;SDS011;53780;44.998;9.926;2023-05-10T08:07:05;8.63;;;4.18;;
66870;SDS011;53780;44.998;9.926;2023-05-10T08:10:10;8.80;;;3.77;;
66870;SDS011;53780;44.998;9.926;2023-05-10T08:13:14;7.57;;;3.78;;
66870;SDS011;53780;44.998;9.926;2023-05-10T08:16:18;7.90;;;3.75;;
66870;SDS011;53780;44.998;9.926;2023-05-10T08:19:22;7.70;;;3.60;;
66870;SDS011;53780;44.998;9.926;2023-05-10T08:22:27;8.25;;;3.38;;
66870;SDS011;53780;44.998;9.926;2023-05-10T08:25:31;5.90;;;3.00;;
66870;SDS011;53780;44.998;9.926;2023-05-10T08:28:35;6.18;;;2.70;;
66870;SDS011;53780;44.998;9.926;2023-05-10T08:31:39;6.50;;;2.97;;
66870;SDS011;53780;44.998;9.926;2023-05-10T08:34:42;6.07;;;2.92;;
66870;SDS011;53780;44.998;9.926;2023-05-10T08:37:46;6.65;;;3.17;;
66870;SDS011;53780;44.998;9.926;2023-05-10T08:40:50;6.50;;;3.00;;
66870;SDS011;53780;44.998;9.926;2023-05-10T08:44:00;8.20;;;3.10;;
66870;SDS011;53780;44.998;9.926;2023-05-10T08:47:07;6.72;;;2.78;;
66870;SDS011;53780;44.998;9.926;2023-05-10T08:50:14;6.30;;;2.88;;
66870;SDS011;53780;44.998;9.926;2023-05-10T08:53:19;5.90;;;2.70;;
66870;SDS011;53780;44.998;9.926;2023-05-10T08:56:24;6.43;;;2.43;;
66870;SDS011;53780;44.998;9.926;2023-05-10T08:59:27;7.95;;;2.90;;
66870;SDS011;53780;44.998;9.926;2023-05-10T09:02:32;6.65;;;2.70;;
66870;SDS011;53780;44.998;9.926;2023-05-10T09:05:36;5.78;;;2.78;;
66870;SDS011;53780;44.998;9.926;2023-05-10T09:08:41;5.22;;;2.58;;
66870;SDS011;53780;44.998;9.926;2023-05-10T09:11:45;6.53;;;3.03;;
66870;SDS011;53780;44.998;9.926;2023-05-10T09:14:50;7.22;;;2.97;;
66870;SDS011;53780;44.998;9.926;2023-05-10T09:17:55;9.90;;;3.30;;
66870;SDS011;53780;44.998;9.926;2023-05-10T09:21:01;7.28;;;2.88;;
66870;SDS011;53780;44.998;9.926;2023-05-10T09:24:06;8.55;;;2.80;;
66870;SDS011;53780;44.998;9.926;2023-05-10T09:27:11;8.07;;;3.20;;
66870;SDS011;53780;44.998;9.926;2023-05-10T09:33:43;8.27;;;3.00;;
66870;SDS011;53780;44.998;9.926;2023-05-10T09:36:51;12.32;;;3.38;;
66870;SDS011;53780;44.998;9.926;2023-05-10T09:39:59;7.80;;;3.05;;
66870;SDS011;53780;44.998;9.926;2023-05-10T09:43:04;9.53;;;3.10;;
66870;SDS011;53780;44.998;9.926;2023-05-10T09:46:10;6.35;;;2.85;;
66870;SDS011;53780;44.998;9.926;2023-05-10T09:49:14;10.90;;;3.05;;
66870;SDS011;53780;44.998;9.926;2023-05-10T09:52:18;7.30;;;3.50;;
66870;SDS011;53780;44.998;9.926;2023-05-10T09:55:22;11.02;;;3.70;;
66870;SDS011;53780;44.998;9.926;2023-05-10T09:58:28;7.60;;;3.10;;
66870;SDS011;53780;44.998;9.926;2023-05-10T10:01:32;8.35;;;3.15;;
66870;SDS011;53780;44.998;9.926;2023-05-10T10:04:41;9.23;;;3.80;;
66870;SDS011;53780;44.998;9.926;2023-05-10T10:07:45;8.95;;;3.80;;
66870;SDS011;53780;44.998;9.926;2023-05-10T10:10:49;9.18;;;3.92;;
66870;SDS011;53780;44.998;9.926;2023-05-10T10:13:53;10.17;;;4.20;;
66870;SDS011;53780;44.998;9.926;2023-05-10T10:16:58;9.25;;;3.97;;
66870;SDS011;53780;44.998;9.926;2023-05-10T10:20:03;12.05;;;3.88;;
66870;SDS011;53780;44.998;9.926;2023-05-10T10:23:07;8.68;;;3.97;;
66870;SDS011;53780;44.998;9.926;2023-05-10T10:26:11;7.35;;;3.58;;
66870;SDS011;53780;44.998;9.926;2023-05-10T10:32:47;8.18;;;3.50;;
66870;SDS011;53780;44.998;9.926;2023-05-10T10:36:12;8.45;;;3.80;;
66870;SDS011;53780;44.998;9.926;2023-05-10T10:39:16;8.48;;;3.90;;
66870;SDS011;53780;44.998;9.926;2023-05-10T10:49:24;8.23;;;4.00;;
66870;SDS011;53780;44.998;9.926;2023-05-10T10:52:33;7.40;;;3.63;;
66870;SDS011;53780;44.998;9.926;2023-05-10T10:55:44;7.05;;;3.65;;
66870;SDS011;53780;44.998;9.926;2023-05-10T10:58:51;7.80;;;3.90;;
66870;SDS011;53780;44.998;9.926;2023-05-10T11:01:56;7.07;;;3.40;;
66870;SDS011;53780;44.998;9.926;2023-05-10T11:08:28;7.07;;;3.60;;
66870;SDS011;53780;44.998;9.926;2023-05-10T11:11:34;7.55;;;3.45;;
66870;SDS011;53780;44.998;9.926;2023-05-10T11:14:38;8.48;;;4.03;;
66870;SDS011;53780;44.998;9.926;2023-05-10T11:17:43;8.87;;;3.90;;
66870;SDS011;53780;44.998;9.926;2023-05-10T11:20:57;7.97;;;3.75;;
66870;SDS011;53780;44.998;9.926;2023-05-10T11:24:13;7.80;;;3.78;;
66870;SDS011;53780;44.998;9.926;2023-05-10T11:27:19;7.60;;;3.63;;
66870;SDS011;53780;44.998;9.926;2023-05-10T11:30:23;8.40;;;4.10;;
66870;SDS011;53780;44.998;9.926;2023-05-10T11:33:28;6.90;;;3.40;;
66870;SDS011;53780;44.998;9.926;2023-05-10T11:36:33;7.53;;;3.83;;
66870;SDS011;53780;44.998;9.926;2023-05-10T11:39:38;8.30;;;4.05;;
66870;SDS011;53780;44.998;9.926;2023-05-10T11:42:41;7.78;;;3.65;;
66870;SDS011;53780;44.998;9.926;2023-05-10T11:45:45;7.63;;;3.90;;
66870;SDS011;53780;44.998;9.926;2023-05-10T11:48:49;7.83;;;3.93;;
66870;SDS011;53780;44.998;9.926;2023-05-10T11:52:07;7.35;;;3.80;;
66870;SDS011;53780;44.998;9.926;2023-05-10T11:55:11;8.70;;;3.75;;
66870;SDS011;53780;44.998;9.926;2023-05-10T11:58:15;8.30;;;3.92;;
66870;SDS011;53780;44.998;9.926;2023-05-10T12:01:21;8.18;;;3.80;;
66870;SDS011;53780;44.998;9.926;2023-05-10T12:04:26;7.90;;;3.60;;
66870;SDS011;53780;44.998;9.926;2023-05-10T12:07:32;11.65;;;3.67;;
66870;SDS011;53780;44.998;9.926;2023-05-10T12:10:36;8.00;;;3.80;;
66870;SDS011;53780;44.998;9.926;2023-05-10T12:13:40;6.65;;;3.38;;
66870;SDS011;53780;44.998;9.926;2023-05-10T12:16:50;7.45;;;3.80;;
66870;SDS011;53780;44.998;9.926;2023-05-10T12:19:58;6.03;;;3.20;;
66870;SDS011;53780;44.998;9.926;2023-05-10T12:23:03;7.80;;;3.95;;
66870;SDS011;53780;44.998;9.926;2023-05-10T12:26:10;9.00;;;3.92;;
66870;SDS011;53780;44.998;9.926;2023-05-10T12:29:15;6.75;;;3.60;;
66870;SDS011;53780;44.998;9.926;2023-05-10T12:32:20;8.25;;;3.78;;
66870;SDS011;53780;44.998;9.926;2023-05-10T12:35:24;8.17;;;3.80;;
66870;SDS011;53780;44.998;9.926;2023-05-10T12:38:29;9.68;;;4.20;;
66870;SDS011;53780;44.998;9.926;2023-05-10T12:41:35;11.00;;;4.25;;
66870;SDS011;53780;44.998;9.926;2023-05-10T12:44:39;9.18;;;4.22;;
66870;SDS011;53780;44.998;9.926;2023-05-10T12:47:43;10.93;;;4.00;;
66870;SDS011;53780;44.998;9.926;2023-05-10T12:50:48;8.07;;;3.73;;
66870;SDS011;53780;44.998;9.926;2023-05-10T12:53:51;7.50;;;3.70;;
66870;SDS011;53780;44.998;9.926;2023-05-10T12:56:55;8.07;;;4.20;;
66870;SDS011;53780;44.998;9.926;2023-05-10T12:59:59;7.90;;;4.15;;
66870;SDS011;53780;44.998;9.926;2023-05-10T13:03:06;7.13;;;3.75;;
66870;SDS011;53780;44.998;9.926;2023-05-10T13:06:10;9.67;;;4.30;;
66870;SDS011;53780;44.998;9.926;2023-05-10T13:09:14;8.05;;;4.35;;
66870;SDS011;53780;44.998;9.926;2023-05-10T13:12:18;8.05;;;4.07;;
66870;SDS011;53780;44.998;9.926;2023-05-10T13:15:22;7.57;;;3.63;;
66870;SDS011;53780;44.998;9.926;2023-05-10T13:18:26;6.25;;;3.35;;
66870;SDS011;53780;44.998;9.926;2023-05-10T13:21:30;6.03;;;3.10;;
66870;SDS011;53780;44.998;9.926;2023-05-10T13:24:33;6.88;;;3.47;;
66870;SDS011;53780;44.998;9.926;2023-05-10T13:27:38;6.85;;;3.67;;
66870;SDS011;53780;44.998;9.926;2023-05-10T13:30:42;7.35;;;3.42;;
66870;SDS011;53780;44.998;9.926;2023-05-10T13:33:46;6.50;;;3.60;;
66870;SDS011;53780;44.998;9.926;2023-05-10T13:36:50;7.10;;;3.40;;
66870;SDS011;53780;44.998;9.926;2023-05-10T13:39:53;6.63;;;3.33;;
66870;SDS011;53780;44.998;9.926;2023-05-10T13:42:57;6.28;;;2.88;;
66870;SDS011;53780;44.998;9.926;2023-05-10T13:46:01;5.85;;;3.00;;
66870;SDS011;53780;44.998;9.926;2023-05-10T13:49:06;7.57;;;3.35;;
66870;SDS011;53780;44.998;9.926;2023-05-10T13:52:10;5.87;;;2.90;;
66870;SDS011;53780;44.998;9.926;2023-05-10T13:55:14;6.35;;;2.97;;
66870;SDS011;53780;44.998;9.926;2023-05-10T13:58:18;7.25;;;3.13;;
66870;SDS011;53780;44.998;9.926;2023-05-10T14:01:22;6.70;;;3.20;;
66870;SDS011;53780;44.998;9.926;2023-05-10T14:04:26;6.32;;;3.17;;
66870;SDS011;53780;44.998;9.926;2023-05-10T14:07:30;7.20;;;3.70;;
66870;SDS011;53780;44.998;9.926;2023-05-10T14:10:34;6.63;;;3.38;;
66870;SDS011;53780;44.998;9.926;2023-05-10T14:13:37;7.40;;;3.47;;
66870;SDS011;53780;44.998;9.926;2023-05-10T14:16:42;6.82;;;3.42;;
66870;SDS011;53780;44.998;9.926;2023-05-10T14:19:47;6.82;;;3.60;;
66870;SDS011;53780;44.998;9.926;2023-05-10T14:22:50;7.17;;;3.77;;
66870;SDS011;53780;44.998;9.926;2023-05-10T14:25:54;7.32;;;3.80;;
66870;SDS011;53780;44.998;9.926;2023-05-10T14:28:58;6.28;;;3.40;;
66870;SDS011;53780;44.998;9.926;2023-05-10T14:32:02;8.05;;;3.67;;
66870;SDS011;53780;44.998;9.926;2023-05-10T14:35:06;6.68;;;3.25;;
66870;SDS011;53780;44.998;9.926;2023-05-10T14:38:10;8.80;;;4.00;;
66870;SDS011;53780;44.998;9.926;2023-05-10T14:41:16;8.23;;;4.15;;
66870;SDS011;53780;44.998;9.926;2023-05-10T14:44:21;7.80;;;3.80;;
66870;SDS011;53780;44.998;9.926;2023-05-10T14:47:25;7.35;;;3.55;;
66870;SDS011;53780;44.998;9.926;2023-05-10T14:50:29;7.82;;;3.83;;
66870;SDS011;53780;44.998;9.926;2023-05-10T14:53:32;8.73;;;3.97;;
66870;SDS011;53780;44.998;9.926;2023-05-10T14:56:37;7.88;;;3.40;;
66870;SDS011;53780;44.998;9.926;2023-05-10T14:59:41;6.75;;;3.17;;
66870;SDS011;53780;44.998;9.926;2023-05-10T15:02:44;7.78;;;3.35;;
66870;SDS011;53780;44.998;9.926;2023-05-10T15:05:48;7.03;;;3.17;;
66870;SDS011;53780;44.998;9.926;2023-05-10T15:08:52;7.60;;;3.30;;
66870;SDS011;53780;44.998;9.926;2023-05-10T15:11:56;7.18;;;3.45;;
66870;SDS011;53780;44.998;9.926;2023-05-10T15:14:59;7.32;;;3.55;;
66870;SDS011;53780;44.998;9.926;2023-05-10T15:18:03;7.63;;;3.55;;
66870;SDS011;53780;44.998;9.926;2023-05-10T15:21:09;7.38;;;3.40;;
66870;SDS011;53780;44.998;9.926;2023-05-10T15:24:13;7.63;;;3.37;;
66870;SDS011;53780;44.998;9.926;2023-05-10T15:27:17;6.20;;;3.10;;
66870;SDS011;53780;44.998;9.926;2023-05-10T15:30:21;7.15;;;3.10;;
66870;SDS011;53780;44.998;9.926;2023-05-10T15:33:25;6.57;;;3.00;;
66870;SDS011;53780;44.998;9.926;2023-05-10T15:36:31;6.85;;;3.10;;
66870;SDS011;53780;44.998;9.926;2023-05-10T15:39:35;10.60;;;3.10;;
66870;SDS011;53780;44.998;9.926;2023-05-10T15:42:39;7.63;;;3.00;;
66870;SDS011;53780;44.998;9.926;2023-05-10T15:45:43;7.82;;;3.30;;
66870;SDS011;53780;44.998;9.926;2023-05-10T15:48:47;7.38;;;3.30;;
66870;SDS011;53780;44.998;9.926;2023-05-10T15:51:51;6.97;;;3.35;;
66870;SDS011;53780;44.998;9.926;2023-05-10T15:54:54;7.07;;;3.30;;
66870;SDS011;53780;44.998;9.926;2023-05-10T15:57:58;6.60;;;2.90;;
66870;SDS011;53780;44.998;9.926;2023-05-10T16:01:02;7.30;;;2.65;;
66870;SDS011;53780;44.998;9.926;2023-05-10T16:04:06;6.57;;;3.22;;
66870;SDS011;53780;44.998;9.926;2023-05-10T16:07:11;6.75;;;3.13;;
66870;SDS011;53780;44.998;9.926;2023-05-10T16:10:14;7.93;;;3.37;;
66870;SDS011;53780;44.998;9.926;2023-05-10T16:13:18;6.07;;;2.97;;
66870;SDS011;53780;44.998;9.926;2023-05-10T16:16:23;6.88;;;2.92;;
66870;SDS011;53780;44.998;9.926;2023-05-10T16:19:26;6.75;;;3.10;;
66870;SDS011;53780;44.998;9.926;2023-05-10T16:22:30;6.40;;;3.17;;
66870;SDS011;53780;44.998;9.926;2023-05-10T16:25:34;6.40;;;3.37;;
66870;SDS011;53780;44.998;9.926;2023-05-10T16:28:39;6.90;;;3.35;;
66870;SDS011;53780;44.998;9.926;2023-05-10T16:31:43;6.30;;;3.40;;
66870;SDS011;53780;44.998;9.926;2023-05-10T16:34:49;6.85;;;3.28;;
66870;SDS011;53780;44.998;9.926;2023-05-10T16:37:53;6.32;;;3.22;;
66870;SDS011;53780;44.998;9.926;2023-05-10T16:40:57;7.23;;;3.20;;
66870;SDS011;53780;44.998;9.926;2023-05-10T16:44:01;7.43;;;3.15;;
66870;SDS011;53780;44.998;9.926;2023-05-10T16:47:06;6.28;;;3.20;;
66870;SDS011;53780;44.998;9.926;2023-05-10T16:50:10;6.72;;;2.97;;
66870;SDS011;53780;44.998;9.926;2023-05-10T16:53:14;7.32;;;3.90;;
66870;SDS011;53780;44.998;9.926;2023-05-10T16:56:18;7.00;;;3.30;;
66870;SDS011;53780;44.998;9.926;2023-05-10T16:59:24;6.82;;;3.70;;
66870;SDS011;53780;44.998;9.926;2023-05-10T17:02:28;6.28;;;3.40;;
66870;SDS011;53780;44.998;9.926;2023-05-10T17:05:31;7.75;;;3.70;;
66870;SDS011;53780;44.998;9.926;2023-05-10T17:08:35;7.75;;;3.65;;
66870;SDS011;53780;44.998;9.926;2023-05-10T17:11:39;10.53;;;5.10;;
66870;SDS011;53780;44.998;9.926;2023-05-10T17:14:44;14.15;;;5.65;;
66870;SDS011;53780;44.998;9.926;2023-05-10T17:17:47;10.98;;;5.22;;
66870;SDS011;53780;44.998;9.926;2023-05-10T17:20:52;8.73;;;4.38;;
66870;SDS011;53780;44.998;9.926;2023-05-10T17:23:55;8.70;;;3.80;;
66870;SDS011;53780;44.998;9.926;2023-05-10T17:26:59;7.73;;;3.10;;
66870;SDS011;53780;44.998;9.926;2023-05-10T17:30:05;7.55;;;3.08;;
66870;SDS011;53780;44.998;9.926;2023-05-10T17:33:10;6.68;;;3.00;;
66870;SDS011;53780;44.998;9.926;2023-05-10T17:36:15;6.65;;;2.80;;
66870;SDS011;53780;44.998;9.926;2023-05-10T17:39:19;6.45;;;3.17;;
66870;SDS011;53780;44.998;9.926;2023-05-10T17:42:22;6.60;;;2.97;;
66870;SDS011;53780;44.998;9.926;2023-05-10T17:45:26;6.75;;;3.17;;
66870;SDS011;53780;44.998;9.926;2023-05-10T17:48:30;7.38;;;3.30;;
66870;SDS011;53780;44.998;9.926;2023-05-10T17:51:34;8.23;;;3.05;;
66870;SDS011;53780;44.998;9.926;2023-05-10T17:54:37;7.88;;;3.67;;
66870;SDS011;53780;44.998;9.926;2023-05-10T17:57:41;7.17;;;3.30;;
66870;SDS011;53780;44.998;9.926;2023-05-10T18:00:46;5.95;;;3.25;;
66870;SDS011;53780;44.998;9.926;2023-05-10T18:03:50;6.32;;;3.40;;
66870;SDS011;53780;44.998;9.926;2023-05-10T18:06:55;6.95;;;3.13;;
66870;SDS011;53780;44.998;9.926;2023-05-10T18:10:03;6.88;;;3.25;;
66870;SDS011;53780;44.998;9.926;2023-05-10T18:13:07;7.27;;;3.37;;
66870;SDS011;53780;44.998;9.926;2023-05-10T18:16:11;8.30;;;3.30;;
66870;SDS011;53780;44.998;9.926;2023-05-10T18:19:15;6.22;;;3.30;;
66870;SDS011;53780;44.998;9.926;2023-05-10T18:22:19;8.00;;;3.50;;
66870;SDS011;53780;44.998;9.926;2023-05-10T18:25:24;7.93;;;3.63;;
66870;SDS011;53780;44.998;9.926;2023-05-10T18:28:27;7.23;;;3.53;;
66870;SDS011;53780;44.998;9.926;2023-05-10T18:31:31;7.28;;;3.42;;
66870;SDS011;53780;44.998;9.926;2023-05-10T18:34:35;8.32;;;3.80;;
66870;SDS011;53780;44.998;9.926;2023-05-10T18:37:39;7.45;;;3.50;;
66870;SDS011;53780;44.998;9.926;2023-05-10T18:40:43;8.13;;;3.80;;
66870;SDS011;53780;44.998;9.926;2023-05-10T18:43:47;7.70;;;3.40;;
66870;SDS011;53780;44.998;9.926;2023-05-10T18:46:51;6.97;;;3.80;;
66870;SDS011;53780;44.998;9.926;2023-05-10T18:49:56;6.85;;;3.40;;
66870;SDS011;53780;44.998;9.926;2023-05-10T18:53:00;9.57;;;3.90;;
66870;SDS011;53780;44.998;9.926;2023-05-10T18:56:04;7.45;;;3.70;;
66870;SDS011;53780;44.998;9.926;2023-05-10T18:59:09;8.07;;;3.80;;
66870;SDS011;53780;44.998;9.926;2023-05-10T19:02:14;8.27;;;3.95;;
66870;SDS011;53780;44.998;9.926;2023-05-10T19:05:18;7.68;;;3.80;;
66870;SDS011;53780;44.998;9.926;2023-05-10T19:08:22;7.50;;;3.63;;